Time;durP1;ratioP1;P1;durP2;ratioP2;P2;SDS_P1;SDS_P2;PMS_P1;PMS_P2;Temp;Humidity;BMP_temperature;BMP_pressure;BME280_temperature;BME280_humidity;BME280_pressure;Samples;Min_cycle;Max_cycle;Signal;HPM_P1;HPM_P2
2021/11/19 00:00:39;;;;;;;36.38;18.42;;;10.70;99.90;;;;;;4970526;28;20571;-76
2021/11/19 00:03:06;;;;;;;38.95;19.38;;;10.70;99.90;;;;;;4966430;28;20035;-75
2021/11/19 00:05:32;;;;;;;44.58;20.08;;;10.70;99.90;;;;;;4960332;28;20061;-75
2021/11/19 00:07:57;;;;;;;47.60;21.00;;;10.70;99.90;;;;;;4964530;28;20038;-75
2021/11/19 00:10:23;;;;;;;38.85;20.38;;;10.80;99.90;;;;;;4967048;28;20049;-74
2021/11/19 00:12:50;;;;;;;40.78;20.60;;;10.80;99.90;;;;;;4960218;28;20043;-75
2021/11/19 00:15:16;;;;;;;42.83;21.15;;;10.80;99.90;;;;;;4967091;28;20431;-74
2021/11/19 00:17:42;;;;;;;42.03;20.45;;;10.80;99.90;;;;;;4965582;28;20073;-74
2021/11/19 00:20:11;;;;;;;46.45;20.92;;;10.80;99.90;;;;;;4973463;28;20156;-74
2021/11/19 00:22:36;;;;;;;44.65;22.00;;;10.90;99.90;;;;;;4967345;28;20559;-75
2021/11/19 00:25:04;;;;;;;41.15;21.35;;;10.80;99.90;;;;;;4982803;28;20050;-74
2021/11/19 00:27:29;;;;;;;45.35;20.65;;;10.90;99.90;;;;;;4967615;28;20014;-75
2021/11/19 00:29:55;;;;;;;54.22;22.40;;;10.90;99.90;;;;;;4971778;28;20065;-73
2021/11/19 00:32:21;;;;;;;43.10;20.90;;;10.90;99.90;;;;;;4965043;28;20035;-75
2021/11/19 00:34:48;;;;;;;43.55;22.08;;;10.90;99.90;;;;;;4973146;28;20027;-74
2021/11/19 00:37:14;;;;;;;41.63;20.05;;;10.90;99.90;;;;;;4964787;28;20033;-75
2021/11/19 00:39:40;;;;;;;53.65;22.38;;;10.90;99.90;;;;;;4965206;28;20029;-74
2021/11/19 00:42:07;;;;;;;34.42;18.27;;;10.90;99.90;;;;;;4963684;28;20035;-75
2021/11/19 00:44:34;;;;;;;43.05;20.17;;;10.90;99.90;;;;;;4969890;28;20501;-75
2021/11/19 00:47:00;;;;;;;36.25;19.50;;;10.90;99.90;;;;;;4962918;28;20027;-74
2021/11/19 00:49:31;;;;;;;37.38;19.33;;;10.90;99.90;;;;;;4974391;28;20133;-75
2021/11/19 00:51:58;;;;;;;44.78;20.42;;;10.90;99.90;;;;;;4967904;28;20043;-75
2021/11/19 00:54:24;;;;;;;38.42;18.35;;;10.90;99.90;;;;;;4972077;28;20114;-74
2021/11/19 00:56:53;;;;;;;39.42;19.98;;;10.90;99.90;;;;;;4961493;28;20099;-74
2021/11/19 00:59:20;;;;;;;38.30;19.45;;;10.90;99.90;;;;;;4973327;28;20128;-75
2021/11/19 01:01:50;;;;;;;37.60;19.10;;;10.90;99.90;;;;;;4965527;28;20150;-74
2021/11/19 01:04:17;;;;;;;41.33;18.40;;;10.90;99.90;;;;;;4964453;28;20084;-74
2021/11/19 01:06:43;;;;;;;49.50;19.90;;;10.90;99.90;;;;;;4962696;28;20053;-74
2021/11/19 01:09:14;;;;;;;40.33;18.70;;;10.90;99.90;;;;;;4964297;28;20046;-74
2021/11/19 01:11:40;;;;;;;39.40;18.52;;;10.90;99.90;;;;;;4967821;28;20203;-73
2021/11/19 01:14:17;;;;;;;40.88;19.45;;;11.00;99.90;;;;;;4967415;28;20505;-75
2021/11/19 01:16:58;;;;;;;35.05;18.17;;;11.00;99.90;;;;;;4957624;28;20037;-75
2021/11/19 01:19:27;;;;;;;;;;;10.90;99.90;;;;;;4966944;28;20023;-74
2021/11/19 01:21:57;;;;;;;40.33;18.63;;;11.00;99.90;;;;;;4964107;28;19926;-75
2021/11/19 01:24:25;;;;;;;33.30;19.10;;;11.00;99.90;;;;;;4963993;28;20085;-74
2021/11/19 01:26:51;;;;;;;39.67;18.67;;;11.00;99.90;;;;;;4957501;28;20098;-74
2021/11/19 01:29:18;;;;;;;41.60;19.70;;;11.00;99.90;;;;;;4964429;28;20019;-74
2021/11/19 01:31:52;;;;;;;37.10;18.88;;;10.90;99.90;;;;;;4964647;28;20026;-74
2021/11/19 01:34:18;;;;;;;37.75;18.98;;;10.90;99.90;;;;;;4978847;28;20027;-75
2021/11/19 01:36:44;;;;;;;36.95;18.73;;;11.00;99.90;;;;;;4957551;28;20039;-75
2021/11/19 01:39:12;;;;;;;36.65;17.73;;;11.00;99.90;;;;;;4969770;28;20023;-74
2021/11/19 01:41:50;;;;;;;34.67;18.67;;;11.00;99.90;;;;;;4960635;28;20526;-75
2021/11/19 01:44:38;;;;;;;36.42;16.50;;;10.90;99.90;;;;;;4961550;28;20066;-75
2021/11/19 01:47:07;;;;;;;37.72;17.33;;;11.00;99.90;;;;;;4957277;28;20065;-75
2021/11/19 01:49:34;;;;;;;38.35;19.02;;;11.00;99.90;;;;;;4966633;28;20097;-75
2021/11/19 01:52:02;;;;;;;43.45;18.15;;;11.00;99.90;;;;;;4969862;28;20107;-74
2021/11/19 01:54:47;;;;;;;32.88;16.45;;;11.00;99.90;;;;;;4969908;28;20523;-74
2021/11/19 01:57:24;;;;;;;33.22;17.80;;;11.00;99.90;;;;;;4960760;28;20042;-75
2021/11/19 02:00:15;;;;;;;39.88;17.73;;;10.90;99.90;;;;;;4962590;28;20066;-75
2021/11/19 02:02:42;;;;;;;;;;;11.00;99.90;;;;;;4953418;28;20034;-74
2021/11/19 02:05:17;;;;;;;40.40;16.73;;;11.00;99.90;;;;;;4970033;28;19910;-74
2021/11/19 02:07:48;;;;;;;33.33;16.42;;;11.00;99.90;;;;;;4960452;28;20128;-75
2021/11/19 02:10:26;;;;;;;33.67;15.90;;;11.00;99.90;;;;;;4968610;28;20435;-74
2021/11/19 02:13:05;;;;;;;33.80;16.70;;;11.00;99.90;;;;;;4966721;28;20030;-74
2021/11/19 02:15:36;;;;;;;31.65;15.77;;;11.00;99.90;;;;;;4962523;28;20042;-75
2021/11/19 02:18:09;;;;;;;40.40;16.00;;;11.00;99.90;;;;;;4964271;28;20115;-75
2021/11/19 02:20:39;;;;;;;33.47;16.65;;;11.00;99.90;;;;;;4965431;28;20043;-74
2021/11/19 02:23:11;;;;;;;33.15;16.67;;;11.00;99.90;;;;;;4959992;28;20042;-74
2021/11/19 02:25:59;;;;;;;37.13;16.83;;;11.00;99.90;;;;;;4970255;28;20086;-75
2021/11/19 02:28:29;;;;;;;31.38;15.68;;;11.00;99.90;;;;;;4961075;28;20030;-75
2021/11/19 02:31:08;;;;;;;34.57;15.23;;;11.00;99.90;;;;;;4963691;28;20149;-74
2021/11/19 02:33:34;;;;;;;33.17;16.42;;;11.00;99.90;;;;;;4972483;28;20277;-74
2021/11/19 02:36:03;;;;;;;34.15;16.35;;;11.00;99.90;;;;;;4962870;28;20040;-74
2021/11/19 02:38:44;;;;;;;32.80;16.60;;;11.00;99.90;;;;;;4963201;28;20502;-74
2021/11/19 02:41:12;;;;;;;31.48;16.70;;;11.00;99.90;;;;;;4968486;28;20168;-75
2021/11/19 02:43:46;;;;;;;27.50;15.45;;;11.00;99.90;;;;;;4964412;28;20119;-75
2021/11/19 02:46:23;;;;;;;31.83;15.30;;;11.00;99.90;;;;;;4963637;28;20050;-75
2021/11/19 02:48:49;;;;;;;29.02;14.48;;;11.00;99.90;;;;;;4972594;28;20026;-75
2021/11/19 02:51:15;;;;;;;30.88;14.52;;;11.00;99.90;;;;;;4966697;28;20035;-75
2021/11/19 02:53:43;;;;;;;29.88;15.70;;;11.00;99.90;;;;;;4974055;28;20030;-75
2021/11/19 02:56:08;;;;;;;33.28;15.98;;;11.00;99.90;;;;;;4963897;28;20033;-75
2021/11/19 02:58:39;;;;;;;33.25;15.88;;;11.00;99.90;;;;;;4968667;28;20446;-75
2021/11/19 03:01:24;;;;;;;32.85;15.45;;;11.00;99.90;;;;;;4968693;28;20043;-76
2021/11/19 03:04:02;;;;;;;31.13;14.40;;;11.00;99.90;;;;;;4960558;28;20062;-75
2021/11/19 03:06:28;;;;;;;26.15;13.98;;;11.00;99.90;;;;;;4963556;28;20106;-75
2021/11/19 03:08:53;;;;;;;30.15;14.20;;;11.00;99.90;;;;;;4962147;28;20150;-75
2021/11/19 03:11:19;;;;;;;24.17;14.05;;;11.00;99.90;;;;;;4963042;28;20037;-75
2021/11/19 03:13:45;;;;;;;29.70;15.27;;;11.00;99.90;;;;;;4962256;28;20134;-75
2021/11/19 03:16:11;;;;;;;25.30;14.13;;;11.00;99.90;;;;;;4966436;28;20035;-74
2021/11/19 03:18:37;;;;;;;28.10;14.20;;;11.00;99.90;;;;;;4968490;28;20065;-75
2021/11/19 03:21:08;;;;;;;34.63;14.40;;;11.00;99.90;;;;;;4973742;28;20078;-75
2021/11/19 03:23:35;;;;;;;26.75;13.77;;;11.00;99.90;;;;;;4965760;28;20097;-75
2021/11/19 03:26:02;;;;;;;37.83;15.55;;;11.00;99.90;;;;;;4969057;28;20077;-74
2021/11/19 03:28:29;;;;;;;29.45;15.40;;;11.00;99.90;;;;;;4960131;28;20099;-75
2021/11/19 03:30:58;;;;;;;30.30;15.23;;;11.00;99.90;;;;;;4966394;28;20042;-74
2021/11/19 03:33:26;;;;;;;28.10;14.07;;;11.00;99.90;;;;;;4960628;28;20079;-75
2021/11/19 03:35:52;;;;;;;35.28;15.68;;;11.00;99.90;;;;;;4966255;28;20119;-75
2021/11/19 03:38:23;;;;;;;27.55;14.95;;;11.00;99.90;;;;;;4962055;28;20301;-74
2021/11/19 03:40:50;;;;;;;30.02;13.95;;;11.00;99.90;;;;;;4969970;28;20046;-75
2021/11/19 03:43:21;;;;;;;28.75;14.38;;;11.10;99.90;;;;;;4962516;28;20031;-75
2021/11/19 03:45:57;;;;;;;30.00;14.20;;;11.10;99.90;;;;;;5014416;23;20050;-77
2021/11/19 03:48:23;;;;;;;31.83;14.32;;;11.10;99.90;;;;;;5002678;28;20169;-77
2021/11/19 03:50:53;;;;;;;26.13;14.05;;;11.10;99.90;;;;;;5006419;28;20041;-77
2021/11/19 03:53:21;;;;;;;28.35;14.68;;;11.10;99.90;;;;;;5005901;28;20540;-77
2021/11/19 03:55:49;;;;;;;34.55;16.55;;;11.10;99.90;;;;;;4992976;28;20548;-77
2021/11/19 03:58:22;;;;;;;30.88;16.00;;;11.10;99.90;;;;;;4989986;28;20041;-77
2021/11/19 04:00:54;;;;;;;33.75;15.00;;;11.10;99.90;;;;;;4984368;28;20034;-77
2021/11/19 04:03:20;;;;;;;33.13;15.77;;;11.10;99.90;;;;;;4988440;28;20049;-77
2021/11/19 04:05:46;;;;;;;32.08;15.27;;;11.10;99.90;;;;;;4985965;28;20077;-77
2021/11/19 04:08:12;;;;;;;35.17;16.10;;;11.10;99.90;;;;;;4986557;28;20029;-77
2021/11/19 04:10:39;;;;;;;26.83;14.75;;;11.10;99.90;;;;;;4987815;28;20487;-77
2021/11/19 04:13:06;;;;;;;32.42;15.75;;;11.10;99.90;;;;;;4987875;28;20030;-77
2021/11/19 04:15:36;;;;;;;31.55;15.45;;;11.10;99.90;;;;;;4986577;28;20022;-77
2021/11/19 04:18:02;;;;;;;34.22;15.70;;;11.10;99.90;;;;;;4988034;28;20042;-77
2021/11/19 04:20:28;;;;;;;34.88;15.82;;;11.10;99.90;;;;;;4986394;28;20506;-77
2021/11/19 04:22:54;;;;;;;35.10;16.02;;;11.10;99.90;;;;;;4986853;28;20073;-77
2021/11/19 04:25:22;;;;;;;39.00;16.52;;;11.10;99.90;;;;;;4987954;28;20018;-77
2021/11/19 04:27:48;;;;;;;30.63;15.50;;;11.10;99.90;;;;;;4988460;28;20061;-77
2021/11/19 04:30:21;;;;;;;31.45;14.90;;;11.10;99.90;;;;;;4992268;28;20070;-77
2021/11/19 04:32:47;;;;;;;34.38;15.43;;;11.10;99.90;;;;;;4986555;28;20517;-77
2021/11/19 04:35:13;;;;;;;33.70;15.90;;;11.10;99.90;;;;;;4985233;28;20038;-77
2021/11/19 04:37:38;;;;;;;37.55;16.27;;;11.10;99.90;;;;;;4986169;28;20030;-76
2021/11/19 04:40:06;;;;;;;36.35;15.93;;;11.10;99.90;;;;;;4989348;28;20416;-77
2021/11/19 04:42:32;;;;;;;35.53;16.38;;;11.10;99.90;;;;;;4986056;28;20042;-77
2021/11/19 04:44:58;;;;;;;32.08;15.38;;;11.10;99.90;;;;;;4984317;28;20018;-77
2021/11/19 04:47:23;;;;;;;32.67;16.02;;;11.10;99.90;;;;;;4986841;28;20109;-77
2021/11/19 04:49:49;;;;;;;35.97;15.20;;;11.10;99.90;;;;;;4987356;28;20088;-77
2021/11/19 04:52:15;;;;;;;29.52;16.77;;;11.10;99.90;;;;;;4989162;28;20811;-77
2021/11/19 04:54:42;;;;;;;39.10;17.52;;;11.10;99.90;;;;;;4987819;28;20022;-77
2021/11/19 04:57:09;;;;;;;33.92;15.75;;;11.10;99.90;;;;;;4988073;28;20027;-78
2021/11/19 04:59:35;;;;;;;35.00;15.95;;;11.10;99.90;;;;;;4989039;28;20053;-77
2021/11/19 05:02:04;;;;;;;33.85;17.00;;;11.10;99.90;;;;;;4985713;28;20031;-77
2021/11/19 05:04:29;;;;;;;38.50;16.67;;;11.10;99.90;;;;;;4987693;28;20045;-77
2021/11/19 05:06:55;;;;;;;35.92;17.05;;;11.10;99.90;;;;;;4986654;28;20026;-77
2021/11/19 05:09:20;;;;;;;34.13;16.33;;;11.10;99.90;;;;;;4991880;28;20555;-77
2021/11/19 05:11:58;;;;;;;40.53;16.88;;;11.10;99.90;;;;;;4986307;28;20110;-76
2021/11/19 05:14:25;;;;;;;34.50;16.88;;;11.10;99.90;;;;;;4988223;28;20092;-77
2021/11/19 05:16:51;;;;;;;35.35;16.25;;;11.10;99.80;;;;;;4987908;28;20442;-77
2021/11/19 05:19:17;;;;;;;35.13;15.65;;;11.10;99.80;;;;;;4987681;28;20325;-77
2021/11/19 05:21:44;;;;;;;32.10;16.60;;;11.10;99.80;;;;;;4984567;28;20109;-76
2021/11/19 05:24:11;;;;;;;29.02;14.85;;;11.10;99.70;;;;;;4982439;28;20117;-77
2021/11/19 05:26:38;;;;;;;31.80;14.98;;;11.10;99.70;;;;;;4986534;28;20041;-77
2021/11/19 05:29:04;;;;;;;28.38;14.95;;;11.10;99.60;;;;;;4983583;28;20052;-76
2021/11/19 05:31:30;;;;;;;31.10;15.27;;;11.10;99.60;;;;;;4987114;28;20018;-77
2021/11/19 05:33:56;;;;;;;34.28;15.52;;;11.10;99.50;;;;;;4989450;28;20411;-76
2021/11/19 05:36:21;;;;;;;38.35;17.08;;;11.10;99.60;;;;;;4985364;28;20129;-77
2021/11/19 05:38:48;;;;;;;32.78;14.98;;;11.10;99.70;;;;;;4983136;28;20035;-77
2021/11/19 05:41:15;;;;;;;36.30;16.02;;;11.10;99.80;;;;;;4984934;28;20030;-77
2021/11/19 05:43:44;;;;;;;36.33;15.75;;;11.10;99.80;;;;;;4980824;28;20041;-77
2021/11/19 05:46:12;;;;;;;30.30;15.68;;;11.10;99.80;;;;;;4985044;28;20027;-76
2021/11/19 05:48:38;;;;;;;36.60;15.60;;;11.10;99.80;;;;;;4986518;28;20030;-77
2021/11/19 05:51:03;;;;;;;29.65;14.20;;;11.10;99.70;;;;;;4987660;28;20536;-77
2021/11/19 05:53:29;;;;;;;32.72;14.43;;;11.10;99.70;;;;;;4987756;28;20026;-77
2021/11/19 05:55:54;;;;;;;27.75;14.27;;;11.10;99.70;;;;;;4981747;28;20026;-77
2021/11/19 05:58:21;;;;;;;34.40;15.05;;;11.10;99.70;;;;;;4980130;28;20034;-77
2021/11/19 06:00:51;;;;;;;32.63;15.27;;;11.10;99.70;;;;;;4986730;28;20030;-76
2021/11/19 06:03:17;;;;;;;29.27;15.40;;;11.10;99.70;;;;;;4976447;28;20298;-77
2021/11/19 06:05:43;;;;;;;34.05;14.43;;;11.10;99.80;;;;;;4982113;28;20606;-76
2021/11/19 06:08:08;;;;;;;24.20;13.32;;;11.10;99.80;;;;;;4983058;28;20057;-76
2021/11/19 06:10:40;;;;;;;33.05;13.32;;;11.10;99.80;;;;;;4983893;28;20410;-75
2021/11/19 06:13:13;;;;;;;34.50;14.48;;;11.10;99.80;;;;;;4980285;28;20054;-76
2021/11/19 06:15:47;;;;;;;32.80;14.20;;;11.10;99.80;;;;;;4985272;28;20398;-76
2021/11/19 06:18:18;;;;;;;28.35;14.50;;;11.10;99.80;;;;;;4984336;28;20026;-76
2021/11/19 06:21:03;;;;;;;30.83;15.48;;;11.10;99.80;;;;;;4986308;28;20239;-76
2021/11/19 06:23:39;;;;;;;28.92;14.13;;;11.00;99.90;;;;;;4985308;28;20503;-76
2021/11/19 06:26:08;;;;;;;26.77;12.75;;;11.00;99.90;;;;;;4986295;28;20089;-77
2021/11/19 06:28:40;;;;;;;32.53;14.80;;;11.10;99.90;;;;;;4984928;28;20550;-76
2021/11/19 06:31:07;;;;;;;29.58;13.73;;;11.00;99.90;;;;;;4983396;28;20033;-76
2021/11/19 06:33:33;;;;;;;26.65;14.48;;;11.00;99.90;;;;;;4984988;28;20038;-77
2021/11/19 06:35:58;;;;;;;27.20;12.98;;;11.00;99.80;;;;;;4986425;28;20037;-76
2021/11/19 06:38:24;;;;;;;26.80;13.45;;;11.00;99.80;;;;;;4983668;28;20023;-76
2021/11/19 06:40:49;;;;;;;33.63;14.35;;;11.00;99.80;;;;;;4984881;28;20629;-77
2021/11/19 06:43:16;;;;;;;29.92;14.23;;;11.00;99.80;;;;;;4985768;28;20416;-76
2021/11/19 06:45:41;;;;;;;27.00;13.10;;;11.00;99.80;;;;;;4985403;28;20034;-75
2021/11/19 06:48:08;;;;;;;28.48;13.15;;;11.10;99.70;;;;;;4986335;28;20026;-75
2021/11/19 06:50:36;;;;;;;29.85;12.90;;;11.10;99.60;;;;;;4986826;28;20030;-75
2021/11/19 06:53:03;;;;;;;25.75;13.55;;;11.10;99.60;;;;;;4984092;28;20048;-74
2021/11/19 06:55:29;;;;;;;32.50;14.05;;;11.10;99.60;;;;;;4985644;28;20034;-75
2021/11/19 06:57:55;;;;;;;31.55;13.48;;;11.00;99.60;;;;;;4985470;28;20122;-75
2021/11/19 07:00:25;;;;;;;23.00;13.02;;;11.00;99.70;;;;;;4984265;28;20689;-74
2021/11/19 07:02:50;;;;;;;31.83;13.25;;;11.00;99.60;;;;;;4976757;28;20541;-74
2021/11/19 07:05:16;;;;;;;28.02;13.15;;;11.00;99.70;;;;;;4983811;28;20109;-74
2021/11/19 07:07:43;;;;;;;28.00;13.40;;;11.10;99.70;;;;;;4987766;28;20415;-75
2021/11/19 07:10:09;;;;;;;27.50;13.05;;;11.10;99.60;;;;;;4983273;28;20652;-75
2021/11/19 07:12:35;;;;;;;28.60;12.93;;;11.10;99.60;;;;;;4982580;28;20100;-74
2021/11/19 07:15:02;;;;;;;25.38;12.73;;;11.10;99.60;;;;;;4980197;28;20037;-75
2021/11/19 07:17:28;;;;;;;29.52;12.93;;;11.10;99.60;;;;;;4984079;28;20324;-75
2021/11/19 07:19:53;;;;;;;35.97;13.52;;;11.10;99.50;;;;;;4986351;28;20030;-74
2021/11/19 07:22:19;;;;;;;23.60;12.18;;;11.10;99.50;;;;;;4988977;28;20441;-75
2021/11/19 07:24:44;;;;;;;28.92;13.25;;;11.10;99.50;;;;;;4985755;28;20029;-75
2021/11/19 07:27:12;;;;;;;28.35;12.93;;;11.10;99.30;;;;;;4990146;28;20035;-75
2021/11/19 07:29:38;;;;;;;27.35;13.18;;;11.20;99.30;;;;;;4990662;28;20088;-75
2021/11/19 07:32:04;;;;;;;25.35;12.80;;;11.10;99.20;;;;;;4988015;28;20368;-75
2021/11/19 07:34:30;;;;;;;28.90;13.32;;;11.20;99.10;;;;;;4987717;28;20305;-75
2021/11/19 07:36:56;;;;;;;22.25;12.43;;;11.20;99.10;;;;;;4989944;28;20040;-75
2021/11/19 07:39:22;;;;;;;23.80;12.88;;;11.20;99.10;;;;;;4987609;28;20357;-75
2021/11/19 07:41:47;;;;;;;29.00;13.98;;;11.20;99.10;;;;;;4990608;28;20477;-75
2021/11/19 07:44:13;;;;;;;30.60;14.13;;;11.20;99.10;;;;;;4985030;28;20582;-77
2021/11/19 07:46:39;;;;;;;27.88;13.15;;;11.20;99.10;;;;;;4982081;28;20030;-77
2021/11/19 07:49:06;;;;;;;28.80;14.40;;;11.20;99.20;;;;;;4988671;28;20018;-77
2021/11/19 07:51:39;;;;;;;25.77;14.38;;;11.20;99.20;;;;;;4981026;28;20023;-77
2021/11/19 07:54:05;;;;;;;34.65;15.27;;;11.20;99.20;;;;;;4974675;28;20499;-77
2021/11/19 07:56:33;;;;;;;31.60;15.20;;;11.20;99.30;;;;;;4985369;28;20034;-76
2021/11/19 07:59:10;;;;;;;28.55;14.50;;;11.20;99.30;;;;;;4987850;28;20041;-76
2021/11/19 08:01:37;;;;;;;29.70;15.35;;;11.10;99.30;;;;;;4979941;28;20026;-77
2021/11/19 08:04:03;;;;;;;26.88;14.40;;;11.10;99.40;;;;;;4985661;28;20554;-77
2021/11/19 08:06:31;;;;;;;25.75;14.52;;;11.10;99.40;;;;;;4982672;28;20656;-77
2021/11/19 08:08:57;;;;;;;25.00;15.07;;;11.20;99.30;;;;;;4987880;28;20603;-77
2021/11/19 08:11:24;;;;;;;25.38;13.95;;;11.20;99.40;;;;;;4984787;28;20428;-77
2021/11/19 08:13:50;;;;;;;35.65;14.68;;;11.20;99.30;;;;;;4988190;28;20125;-77
2021/11/19 08:16:16;;;;;;;29.25;15.10;;;11.20;99.30;;;;;;4986734;28;20046;-77
2021/11/19 08:18:50;;;;;;;28.27;14.65;;;11.20;99.30;;;;;;4986543;28;20380;-77
2021/11/19 08:21:16;;;;;;;29.27;13.02;;;11.20;99.30;;;;;;4987953;28;20030;-76
2021/11/19 08:23:45;;;;;;;32.78;14.23;;;11.30;99.20;;;;;;4986293;28;20376;-76
2021/11/19 08:26:25;;;;;;;29.98;14.90;;;11.20;99.20;;;;;;4986246;28;20018;-77
2021/11/19 08:28:51;;;;;;;27.05;14.38;;;11.30;99.10;;;;;;4985606;28;20034;-76
2021/11/19 08:31:19;;;;;;;27.42;13.77;;;11.30;99.10;;;;;;4983743;28;20491;-76
2021/11/19 08:33:45;;;;;;;30.40;14.98;;;11.20;99.10;;;;;;4985562;28;20041;-75
2021/11/19 08:36:12;;;;;;;30.15;15.00;;;11.20;99.10;;;;;;4986328;28;20853;-77
2021/11/19 08:38:41;;;;;;;28.02;15.75;;;11.30;99.10;;;;;;4988362;28;20049;-78
2021/11/19 08:41:07;;;;;;;20.90;13.60;;;11.20;99.20;;;;;;4986498;28;20095;-77
2021/11/19 08:43:36;;;;;;;25.30;12.82;;;11.20;99.20;;;;;;4987829;28;20042;-78
2021/11/19 08:46:09;;;;;;;26.23;14.30;;;11.20;99.20;;;;;;4985507;28;20022;-77
2021/11/19 08:48:37;;;;;;;28.35;13.32;;;11.20;99.20;;;;;;4985950;28;20085;-77
2021/11/19 08:51:05;;;;;;;28.15;14.02;;;11.20;99.10;;;;;;4993438;28;20385;-77
2021/11/19 08:53:31;;;;;;;29.98;13.65;;;11.20;99.10;;;;;;4989333;28;20069;-78
2021/11/19 08:55:59;;;;;;;22.85;13.50;;;11.30;99.10;;;;;;4987041;28;20038;-77
2021/11/19 08:58:29;;;;;;;27.38;12.63;;;11.30;98.90;;;;;;4988938;28;20014;-77
2021/11/19 09:00:57;;;;;;;22.10;12.70;;;11.30;98.80;;;;;;4986782;28;20042;-77
2021/11/19 09:03:23;;;;;;;21.92;12.85;;;11.30;98.80;;;;;;4986272;28;20101;-77
2021/11/19 09:05:50;;;;;;;25.02;11.35;;;11.30;98.70;;;;;;4984803;28;20041;-77
2021/11/19 09:08:18;;;;;;;23.80;12.35;;;11.30;98.60;;;;;;4984556;28;20029;-76
2021/11/19 09:10:47;;;;;;;21.98;11.98;;;11.40;98.30;;;;;;4986334;28;20046;-77
2021/11/19 09:13:12;;;;;;;20.02;12.40;;;11.30;98.30;;;;;;4989168;28;20018;-77
2021/11/19 09:15:39;;;;;;;18.90;11.15;;;11.40;98.20;;;;;;4986134;28;20498;-77
2021/11/19 09:18:12;;;;;;;23.75;11.95;;;11.40;98.10;;;;;;4986170;28;20041;-77
2021/11/19 09:21:25;;;;;;;16.27;9.75;;;11.50;97.90;;;;;;4985178;28;20145;-77
2021/11/19 09:24:00;;;;;;;21.95;10.90;;;11.50;98.00;;;;;;4983149;28;20510;-77
2021/11/19 09:26:46;;;;;;;20.80;10.23;;;11.50;97.90;;;;;;4984011;28;20030;-77
2021/11/19 09:29:16;;;;;;;21.63;10.90;;;11.50;97.80;;;;;;4984289;28;20537;-77
2021/11/19 09:31:42;;;;;;;26.30;11.38;;;11.50;97.80;;;;;;4987602;28;20548;-77
2021/11/19 09:34:10;;;;;;;14.65;10.07;;;11.60;97.70;;;;;;4986834;28;20391;-77
2021/11/19 09:36:36;;;;;;;20.60;10.65;;;11.60;97.70;;;;;;4985145;28;20490;-77
2021/11/19 09:39:05;;;;;;;20.75;9.73;;;11.60;97.60;;;;;;4985256;28;20078;-77
2021/11/19 09:41:43;;;;;;;16.92;9.15;;;11.60;97.40;;;;;;4985079;28;20034;-77
2021/11/19 09:44:28;;;;;;;22.00;10.05;;;11.60;97.20;;;;;;4981901;28;20058;-77
2021/11/19 09:47:14;;;;;;;15.05;8.43;;;11.60;97.20;;;;;;5017533;23;20052;-74
2021/11/19 09:50:08;;;;;;;19.70;9.30;;;11.60;97.10;;;;;;4996257;28;20552;-75
2021/11/19 09:52:52;;;;;;;19.65;9.43;;;11.70;97.10;;;;;;4998892;28;20045;-74
2021/11/19 09:55:48;;;;;;;20.02;8.57;;;11.70;96.90;;;;;;4992864;28;20042;-74
2021/11/19 09:58:30;;;;;;;14.45;9.02;;;11.70;96.90;;;;;;4974611;28;20031;-74
2021/11/19 10:01:34;;;;;;;18.25;8.77;;;11.80;96.80;;;;;;4970032;28;20058;-74
2021/11/19 10:04:53;;;;;;;14.45;8.27;;;11.80;96.70;;;;;;4984957;28;20117;-74
2021/11/19 10:07:37;;;;;;;19.25;9.00;;;11.80;96.40;;;;;;4951129;28;20045;-74
2021/11/19 10:10:25;;;;;;;18.25;9.02;;;11.80;96.40;;;;;;4978510;28;20023;-75
2021/11/19 10:13:21;;;;;;;17.73;8.50;;;11.80;96.50;;;;;;4974578;28;20358;-75
2021/11/19 10:16:31;;;;;;;14.48;8.23;;;11.90;96.30;;;;;;4975858;28;20041;-73
2021/11/19 10:19:22;;;;;;;14.82;8.45;;;12.00;96.00;;;;;;4927294;29;20043;-76
2021/11/19 10:22:13;;;;;;;17.63;8.00;;;12.00;95.80;;;;;;4940169;29;20031;-75
2021/11/19 10:25:15;;;;;;;16.75;8.23;;;12.10;95.60;;;;;;4968460;28;20188;-75
2021/11/19 10:27:47;;;;;;;18.50;8.90;;;12.10;95.40;;;;;;4977666;28;20027;-75
2021/11/19 10:30:26;;;;;;;14.23;7.35;;;12.10;95.20;;;;;;4975448;28;20053;-75
2021/11/19 10:32:52;;;;;;;18.77;8.27;;;12.10;95.30;;;;;;4978420;28;20252;-75
2021/11/19 10:35:37;;;;;;;14.82;8.20;;;12.20;94.90;;;;;;4977046;28;20026;-74
2021/11/19 10:38:34;;;;;;;15.23;8.00;;;12.20;94.70;;;;;;4978825;28;20302;-75
2021/11/19 10:41:21;;;;;;;15.10;7.32;;;12.20;94.80;;;;;;4981857;28;21694;-75
2021/11/19 10:44:05;;;;;;;14.60;7.43;;;12.20;94.80;;;;;;4981062;28;20030;-75
2021/11/19 10:47:17;;;;;;;14.95;7.35;;;12.20;94.50;;;;;;4977435;28;20376;-75
2021/11/19 10:50:11;;;;;;;15.32;7.30;;;12.20;94.40;;;;;;4977701;28;20428;-76
2021/11/19 10:53:09;;;;;;;17.63;7.93;;;12.20;94.60;;;;;;4983809;28;20098;-75
2021/11/19 10:56:02;;;;;;;15.30;7.80;;;12.20;95.10;;;;;;4980336;28;20109;-75
2021/11/19 10:58:47;;;;;;;12.23;7.80;;;12.20;94.90;;;;;;4983144;28;20145;-74
2021/11/19 11:01:36;;;;;;;18.73;7.05;;;12.20;94.90;;;;;;4978179;28;20036;-75
2021/11/19 11:04:14;;;;;;;15.43;7.60;;;12.10;94.90;;;;;;4982164;28;20464;-75
2021/11/19 11:07:07;;;;;;;13.27;7.38;;;12.20;94.80;;;;;;4981089;28;20027;-74
2021/11/19 11:09:40;;;;;;;16.73;7.25;;;12.10;94.70;;;;;;4982584;28;20483;-75
2021/11/19 11:12:16;;;;;;;12.20;7.05;;;12.20;94.70;;;;;;4984186;28;20042;-73
2021/11/19 11:14:44;;;;;;;19.83;7.03;;;12.20;94.80;;;;;;4984146;28;20089;-74
2021/11/19 11:17:22;;;;;;;15.45;7.18;;;12.20;94.80;;;;;;4977494;28;20025;-74
2021/11/19 11:19:49;;;;;;;14.07;7.35;;;12.10;94.60;;;;;;4979280;28;20022;-73
2021/11/19 11:22:21;;;;;;;16.05;7.95;;;12.10;94.70;;;;;;4983529;28;20060;-74
2021/11/19 11:25:02;;;;;;;20.42;7.00;;;12.10;95.10;;;;;;4978644;28;20050;-73
2021/11/19 11:27:36;;;;;;;12.63;6.88;;;12.10;95.00;;;;;;4976434;28;20084;-74
2021/11/19 11:30:08;;;;;;;11.60;5.97;;;12.10;94.80;;;;;;4985501;28;20161;-73
2021/11/19 11:32:49;;;;;;;11.27;5.72;;;12.10;94.50;;;;;;4986294;28;20194;-73
2021/11/19 11:35:40;;;;;;;14.30;5.30;;;12.20;94.00;;;;;;4974367;28;20117;-73
2021/11/19 11:38:26;;;;;;;19.27;5.38;;;12.20;94.00;;;;;;4976753;28;20657;-73
2021/11/19 11:41:48;;;;;;;14.00;6.05;;;12.20;93.90;;;;;;4981702;28;20056;-72
2021/11/19 11:44:37;;;;;;;12.15;5.97;;;12.10;93.80;;;;;;4944387;29;20142;-76
2021/11/19 11:47:12;;;;;;;11.07;5.43;;;12.10;94.00;;;;;;4926246;29;20031;-73
2021/11/19 11:49:52;;;;;;;10.32;5.68;;;12.10;94.40;;;;;;4969015;28;20065;-73
2021/11/19 11:52:56;;;;;;;14.93;5.85;;;12.10;94.70;;;;;;4982112;28;20509;-74
2021/11/19 11:55:51;;;;;;;17.08;6.50;;;12.00;95.00;;;;;;4978200;28;20101;-75
2021/11/19 11:58:47;;;;;;;15.05;6.20;;;12.00;95.20;;;;;;4961331;28;20494;-75
2021/11/19 12:01:44;;;;;;;16.73;6.35;;;12.00;95.40;;;;;;4983748;28;20164;-76
2021/11/19 12:04:47;;;;;;;17.30;6.30;;;12.00;95.30;;;;;;4975499;28;20511;-76
2021/11/19 12:07:35;;;;;;;16.02;5.93;;;12.00;95.10;;;;;;4978084;28;20114;-73
2021/11/19 12:10:24;;;;;;;18.15;7.22;;;12.00;95.00;;;;;;4975452;28;20035;-73
2021/11/19 12:13:11;;;;;;;17.02;7.07;;;12.00;95.20;;;;;;4980386;28;20110;-73
2021/11/19 12:15:51;;;;;;;16.15;6.85;;;11.90;95.60;;;;;;4977268;28;20056;-73
2021/11/19 12:18:55;;;;;;;12.40;6.07;;;11.90;95.90;;;;;;4983211;28;20140;-73
2021/11/19 12:21:49;;;;;;;17.63;6.45;;;11.90;95.70;;;;;;4954691;28;20050;-73
2021/11/19 12:24:20;;;;;;;11.00;6.45;;;12.00;95.30;;;;;;4991628;28;20046;-76
2021/11/19 12:27:01;;;;;;;13.60;6.70;;;12.00;95.10;;;;;;4986228;28;20045;-72
2021/11/19 12:29:29;;;;;;;;;;;12.10;94.80;;;;;;4980405;28;20534;-73
2021/11/19 12:32:18;;;;;;;13.73;5.43;;;12.10;94.10;;;;;;4980914;28;19918;-73
2021/11/19 12:35:18;;;;;;;11.82;4.88;;;12.10;93.90;;;;;;4975868;28;20061;-73
2021/11/19 12:38:08;;;;;;;12.93;5.00;;;12.10;93.80;;;;;;4968022;28;20054;-73
2021/11/19 12:40:39;;;;;;;13.13;4.82;;;12.10;93.80;;;;;;4980623;28;20451;-73
2021/11/19 12:43:33;;;;;;;12.00;5.07;;;12.10;93.80;;;;;;4984900;28;20137;-73
2021/11/19 12:46:18;;;;;;;9.70;4.68;;;12.10;94.00;;;;;;4983235;28;20026;-74
2021/11/19 12:49:21;;;;;;;10.45;3.88;;;12.10;94.00;;;;;;4981681;28;20034;-71
2021/11/19 12:51:58;;;;;;;14.55;5.47;;;12.10;94.00;;;;;;4974008;28;20339;-76
2021/11/19 12:54:45;;;;;;;10.77;4.43;;;12.10;94.10;;;;;;4986618;28;20027;-74
2021/11/19 12:57:10;;;;;;;11.88;4.28;;;12.10;94.10;;;;;;4984691;28;20475;-74
2021/11/19 12:59:48;;;;;;;17.08;5.18;;;12.00;94.10;;;;;;4981927;28;20053;-73